createdAt,value
2023-03-26T00:00:09.946Z,2.40
2023-03-26T00:02:58.661Z,2.10
2023-03-26T00:05:46.648Z,2.17
2023-03-26T00:08:32.288Z,2.40
2023-03-26T00:11:19.311Z,2.97
2023-03-26T00:14:05.670Z,3.20
2023-03-26T00:16:51.948Z,2.75
2023-03-26T00:19:38.233Z,3.35
2023-03-26T00:22:23.858Z,2.70
2023-03-26T00:25:09.727Z,3.30
2023-03-26T00:27:55.708Z,2.83
2023-03-26T00:30:41.958Z,2.85
2023-03-26T00:33:28.395Z,2.78
2023-03-26T00:36:17.359Z,2.55
2023-03-26T00:39:06.159Z,2.25
2023-03-26T00:41:54.860Z,2.40
2023-03-26T00:44:40.908Z,2.38
2023-03-26T00:47:27.724Z,2.10
2023-03-26T00:50:16.370Z,2.30
2023-03-26T00:53:03.261Z,2.33
2023-03-26T00:55:49.245Z,2.00
2023-03-26T00:58:35.695Z,1.92
2023-03-26T01:01:30.490Z,1.92
2023-03-26T01:04:24.284Z,1.80
2023-03-26T01:07:13.557Z,1.88
2023-03-26T01:10:00.200Z,1.65
2023-03-26T01:12:45.608Z,1.65
2023-03-26T01:15:31.451Z,1.48
2023-03-26T01:18:27.291Z,1.73
2023-03-26T01:21:14.674Z,1.20
2023-03-26T01:24:01.729Z,1.45
2023-03-26T01:27:17.926Z,1.42
2023-03-26T01:30:31.083Z,1.10
2023-03-26T01:33:37.591Z,0.98
2023-03-26T01:36:35.063Z,1.02
2023-03-26T01:39:40.972Z,1.10
2023-03-26T01:42:49.266Z,0.93
2023-03-26T01:45:36.796Z,0.80
2023-03-26T01:48:30.021Z,1.08
2023-03-26T01:51:30.618Z,0.90
2023-03-26T01:54:25.053Z,0.70
2023-03-26T01:57:37.911Z,0.70
2023-03-26T02:00:40.730Z,0.60
2023-03-26T02:03:32.251Z,0.80
2023-03-26T02:06:25.851Z,0.73
2023-03-26T02:09:18.432Z,0.70
2023-03-26T02:12:04.739Z,0.60
2023-03-26T02:14:51.755Z,0.60
2023-03-26T02:17:40.387Z,0.50
2023-03-26T02:20:30.384Z,0.60
2023-03-26T02:23:15.868Z,0.73
2023-03-26T02:26:09.958Z,0.70
2023-03-26T02:29:06.679Z,0.40
2023-03-26T02:31:54.420Z,0.70
2023-03-26T02:34:41.244Z,0.70
2023-03-26T02:37:27.827Z,0.68
2023-03-26T02:40:22.899Z,0.80
2023-03-26T02:43:09.993Z,0.50
2023-03-26T02:45:56.468Z,0.65
2023-03-26T02:49:06.518Z,0.40
2023-03-26T02:51:56.461Z,0.65
2023-03-26T02:54:46.005Z,0.40
2023-03-26T02:57:31.808Z,0.52
2023-03-26T03:00:22.738Z,0.57
2023-03-26T03:03:09.621Z,0.60
2023-03-26T03:06:17.251Z,0.52
2023-03-26T03:09:09.115Z,0.40
2023-03-26T03:11:54.719Z,0.40
2023-03-26T03:14:40.874Z,0.50
2023-03-26T03:17:26.811Z,0.40
2023-03-26T03:20:13.571Z,0.50
2023-03-26T03:22:59.070Z,0.60
2023-03-26T03:25:44.545Z,0.60
2023-03-26T03:28:30.694Z,0.55
2023-03-26T03:31:17.679Z,0.80
2023-03-26T03:34:03.818Z,0.50
2023-03-26T03:36:53.415Z,0.50
2023-03-26T03:39:51.003Z,0.60
2023-03-26T03:42:39.500Z,0.50
2023-03-26T03:45:26.589Z,0.68
2023-03-26T03:48:14.872Z,0.50
2023-03-26T03:51:04.643Z,0.50
2023-03-26T03:54:00.486Z,0.45
2023-03-26T03:57:02.161Z,0.57
2023-03-26T04:00:09.235Z,0.32
2023-03-26T04:03:14.469Z,0.40
2023-03-26T04:06:01.605Z,0.30
2023-03-26T04:08:47.721Z,0.40
2023-03-26T04:11:33.637Z,0.40
2023-03-26T04:14:37.849Z,0.60
2023-03-26T04:17:30.684Z,0.50
2023-03-26T04:20:16.604Z,0.30
2023-03-26T04:23:05.472Z,0.40
2023-03-26T04:25:54.195Z,0.43
2023-03-26T04:28:49.825Z,0.45
2023-03-26T04:31:43.217Z,0.55
2023-03-26T04:34:31.086Z,0.50
2023-03-26T04:37:39.636Z,0.60
2023-03-26T04:40:39.790Z,0.43
2023-03-26T04:43:50.785Z,0.40
2023-03-26T04:46:43.964Z,0.40
2023-03-26T04:49:41.485Z,0.50
2023-03-26T04:52:27.909Z,0.40
2023-03-26T04:55:52.742Z,0.50
2023-03-26T04:58:59.926Z,0.50
2023-03-26T05:01:46.458Z,0.50
2023-03-26T05:04:36.847Z,0.50
2023-03-26T05:07:24.226Z,0.55
2023-03-26T05:10:16.641Z,0.60
2023-03-26T05:13:08.711Z,0.40
2023-03-26T05:16:00.774Z,0.93
2023-03-26T05:19:15.434Z,0.60
2023-03-26T05:22:02.477Z,0.55
2023-03-26T05:24:50.495Z,0.43
2023-03-26T05:27:36.159Z,0.70
2023-03-26T05:30:22.780Z,0.60
2023-03-26T05:33:13.871Z,0.55
2023-03-26T05:36:10.141Z,0.60
2023-03-26T05:38:56.195Z,1.08
2023-03-26T05:42:17.267Z,0.50
2023-03-26T05:45:27.480Z,0.50
2023-03-26T05:48:14.428Z,0.50
2023-03-26T05:51:00.734Z,0.70
2023-03-26T05:53:49.397Z,0.68
2023-03-26T05:57:07.038Z,0.90
2023-03-26T06:00:12.296Z,0.65
2023-03-26T06:03:03.819Z,0.77
2023-03-26T06:06:17.099Z,0.50
2023-03-26T06:09:14.779Z,0.68
2023-03-26T06:12:01.821Z,0.60
2023-03-26T06:14:49.825Z,0.60
2023-03-26T06:17:40.167Z,0.52
2023-03-26T06:20:52.749Z,0.70
2023-03-26T06:23:56.157Z,0.60
2023-03-26T06:27:10.979Z,0.90
2023-03-26T06:30:12.305Z,0.52
2023-03-26T06:38:44.381Z,0.40
2023-03-26T06:41:30.634Z,0.55
2023-03-26T06:44:42.318Z,0.50
2023-03-26T06:47:46.938Z,0.60
2023-03-26T06:50:35.368Z,0.47
2023-03-26T06:53:53.292Z,0.68
2023-03-26T06:57:01.836Z,0.50
2023-03-26T07:00:06.993Z,0.63
2023-03-26T07:03:11.625Z,0.77
2023-03-26T07:06:16.241Z,0.68
2023-03-26T07:09:20.349Z,0.70
2023-03-26T07:12:38.365Z,0.70
2023-03-26T07:15:56.203Z,0.70
2023-03-26T07:18:41.685Z,0.93
2023-03-26T07:21:30.380Z,0.82
2023-03-26T07:24:17.442Z,0.60
2023-03-26T07:27:49.241Z,0.90
2023-03-26T07:30:55.864Z,0.90
2023-03-26T07:34:04.215Z,0.80
2023-03-26T07:37:25.929Z,0.82
2023-03-26T07:41:16.957Z,0.98
2023-03-26T07:44:34.093Z,0.70
2023-03-26T07:47:42.397Z,0.88
2023-03-26T07:50:48.310Z,1.10
2023-03-26T07:53:50.489Z,0.80
2023-03-26T07:57:11.213Z,0.80
2023-03-26T08:00:37.420Z,0.73
2023-03-26T08:03:59.517Z,0.63
2023-03-26T08:07:50.843Z,0.65
2023-03-26T08:10:44.668Z,0.40
2023-03-26T08:13:53.545Z,0.68
2023-03-26T08:16:56.663Z,0.47
2023-03-26T08:20:11.984Z,0.43
2023-03-26T08:23:03.644Z,0.50
2023-03-26T08:26:09.519Z,0.50
2023-03-26T08:29:00.940Z,0.50
2023-03-26T08:31:51.184Z,0.60
2023-03-26T08:34:37.264Z,0.80
2023-03-26T08:37:22.809Z,0.50
2023-03-26T08:40:09.585Z,0.57
2023-03-26T08:45:52.055Z,0.80
2023-03-26T08:48:59.493Z,1.02
2023-03-26T08:51:51.033Z,0.80
2023-03-26T08:54:57.201Z,0.80
2023-03-26T08:57:58.684Z,0.70
2023-03-26T09:01:07.451Z,0.70
2023-03-26T09:04:25.613Z,0.70
2023-03-26T09:07:55.883Z,0.98
2023-03-26T09:10:41.339Z,0.95
2023-03-26T09:13:45.840Z,1.17
2023-03-26T09:17:15.195Z,1.17
2023-03-26T09:20:29.240Z,0.88
2023-03-26T09:23:33.048Z,1.25
2023-03-26T09:26:52.776Z,0.90
2023-03-26T09:29:44.293Z,1.52
2023-03-26T09:32:39.317Z,1.05
2023-03-26T09:35:45.773Z,1.05
2023-03-26T09:41:53.021Z,1.13
2023-03-26T09:45:16.866Z,1.80
2023-03-26T09:48:32.134Z,1.38
2023-03-26T09:51:53.810Z,1.48
2023-03-26T09:55:10.128Z,1.40
2023-03-26T09:58:29.076Z,1.85
2023-03-26T10:01:21.461Z,1.48
2023-03-26T10:04:31.683Z,1.83
2023-03-26T10:07:24.215Z,2.00
2023-03-26T10:10:42.084Z,2.10
2023-03-26T10:13:52.900Z,2.10
2023-03-26T10:16:57.675Z,2.42
2023-03-26T10:19:45.943Z,2.90
2023-03-26T10:22:36.068Z,3.70
2023-03-26T10:25:49.771Z,3.40
2023-03-26T10:28:47.531Z,3.90
2023-03-26T10:31:58.736Z,3.28
2023-03-26T10:34:53.181Z,2.72
2023-03-26T10:38:06.347Z,3.38
2023-03-26T10:41:00.588Z,2.47
2023-03-26T10:44:05.101Z,2.38
2023-03-26T10:47:05.702Z,2.25
2023-03-26T10:49:54.917Z,1.75
2023-03-26T10:52:47.139Z,1.30
2023-03-26T10:55:41.452Z,1.48
2023-03-26T10:58:46.085Z,1.10
2023-03-26T11:01:44.151Z,1.00
2023-03-26T11:05:01.335Z,0.80
2023-03-26T11:07:56.879Z,0.90
2023-03-26T11:11:07.028Z,1.00
2023-03-26T11:14:34.460Z,0.70
2023-03-26T11:17:45.881Z,0.70
2023-03-26T11:20:41.322Z,0.60
2023-03-26T11:23:38.722Z,0.90
2023-03-26T11:26:38.319Z,0.88
2023-03-26T11:29:59.713Z,0.90
2023-03-26T11:32:49.138Z,0.73
2023-03-26T11:35:46.339Z,0.63
2023-03-26T11:38:33.656Z,0.60
2023-03-26T11:41:23.424Z,0.50
2023-03-26T11:44:48.952Z,0.45
2023-03-26T11:47:46.364Z,0.60
2023-03-26T11:50:34.872Z,0.52
2023-03-26T11:53:22.717Z,0.65
2023-03-26T11:56:28.547Z,0.98
2023-03-26T11:59:49.130Z,1.08
2023-03-26T12:02:42.487Z,0.77
2023-03-26T12:05:35.686Z,0.90
2023-03-26T12:08:29.062Z,0.90
2023-03-26T12:11:15.313Z,0.68
2023-03-26T12:14:17.631Z,0.90
2023-03-26T12:17:09.376Z,0.80
2023-03-26T12:20:01.292Z,1.00
2023-03-26T12:22:47.968Z,1.52
2023-03-26T12:25:35.714Z,0.90
2023-03-26T12:31:07.702Z,0.60
2023-03-26T12:34:36.261Z,0.80
2023-03-26T12:37:36.606Z,0.80
2023-03-26T12:40:22.347Z,0.70
2023-03-26T12:44:53.177Z,0.68
2023-03-26T12:47:57.689Z,0.50
2023-03-26T12:49:42.259Z,0.80
2023-03-26T12:52:52.475Z,0.50
2023-03-26T12:55:56.647Z,0.50
2023-03-26T12:58:48.785Z,0.50
2023-03-26T13:02:13.729Z,0.50
2023-03-26T13:05:39.199Z,0.52
2023-03-26T13:09:20.922Z,0.60
2023-03-26T13:12:18.829Z,0.70
2023-03-26T13:15:36.925Z,0.43
2023-03-26T13:18:36.656Z,0.50
2023-03-26T13:21:28.786Z,0.50
2023-03-26T13:24:47.638Z,0.30
2023-03-26T13:28:07.904Z,0.40
2023-03-26T13:31:13.994Z,0.28
2023-03-26T13:37:21.209Z,0.35
2023-03-26T13:40:18.078Z,0.32
2023-03-26T13:43:23.027Z,0.30
2023-03-26T13:46:20.835Z,0.38
2023-03-26T13:49:13.643Z,0.45
2023-03-26T13:52:11.620Z,0.30
2023-03-26T13:55:17.200Z,0.82
2023-03-26T13:58:22.032Z,0.30
2023-03-26T14:01:41.402Z,0.40
2023-03-26T14:04:32.818Z,0.40
2023-03-26T14:07:33.085Z,0.45
2023-03-26T14:10:35.612Z,0.50
2023-03-26T14:13:34.108Z,0.40
2023-03-26T14:16:30.631Z,0.50
2023-03-26T14:19:42.547Z,0.40
2023-03-26T14:22:33.756Z,0.50
2023-03-26T14:25:46.032Z,0.68
2023-03-26T14:28:58.216Z,0.50
2023-03-26T14:32:08.299Z,0.65
2023-03-26T14:35:17.530Z,0.40
2023-03-26T14:38:34.570Z,0.80
2023-03-26T14:41:42.334Z,0.52
2023-03-26T14:44:48.201Z,0.55
2023-03-26T14:47:40.852Z,0.60
2023-03-26T14:51:00.421Z,0.60
2023-03-26T14:53:52.114Z,0.50
2023-03-26T14:56:49.949Z,0.50
2023-03-26T14:59:47.681Z,0.88
2023-03-26T15:02:39.279Z,0.80
2023-03-26T15:06:12.459Z,1.10
2023-03-26T15:08:58.694Z,0.60
2023-03-26T15:12:23.085Z,0.80
2023-03-26T15:15:29.665Z,1.10
2023-03-26T15:18:47.642Z,1.13
2023-03-26T15:22:08.513Z,1.25
2023-03-26T15:25:31.830Z,0.80
2023-03-26T15:28:36.573Z,1.30
2023-03-26T15:31:24.101Z,0.80
2023-03-26T15:34:35.212Z,0.80
2023-03-26T15:37:30.635Z,0.80
2023-03-26T15:40:27.111Z,0.80
2023-03-26T15:43:20.389Z,0.90
2023-03-26T15:46:12.096Z,0.80
2023-03-26T15:49:24.364Z,0.82
2023-03-26T15:52:19.485Z,1.15
2023-03-26T15:55:18.804Z,1.10
2023-03-26T15:58:45.485Z,0.93
2023-03-26T16:01:42.889Z,1.33
2023-03-26T16:04:34.537Z,1.30
2023-03-26T16:07:22.011Z,1.73
2023-03-26T16:10:10.956Z,1.40
2023-03-26T16:13:16.619Z,1.33
2023-03-26T16:16:02.865Z,1.65
2023-03-26T16:19:24.366Z,1.80
2023-03-26T16:22:16.659Z,1.73
2023-03-26T16:25:36.083Z,1.77
2023-03-26T16:28:28.720Z,1.70
2023-03-26T16:31:36.363Z,2.13
2023-03-26T16:34:26.276Z,1.58
2023-03-26T16:37:42.949Z,1.70
2023-03-26T16:40:33.711Z,1.30
2023-03-26T16:43:34.626Z,1.92
2023-03-26T16:46:31.965Z,1.60
2023-03-26T16:49:47.373Z,1.52
2023-03-26T16:53:25.695Z,1.60
2023-03-26T16:56:22.468Z,0.98
2023-03-26T16:59:23.868Z,1.75
2023-03-26T17:02:18.344Z,1.48
2023-03-26T17:05:21.056Z,1.23
2023-03-26T17:11:45.369Z,1.42
2023-03-26T17:14:36.836Z,1.45
2023-03-26T17:17:29.754Z,1.15
2023-03-26T17:21:00.700Z,1.33
2023-03-26T17:24:15.324Z,2.10
2023-03-26T17:28:28.638Z,1.30
2023-03-26T17:32:23.235Z,1.45
2023-03-26T17:35:09.288Z,1.90
2023-03-26T17:37:55.204Z,2.13
2023-03-26T17:40:47.889Z,2.53
2023-03-26T17:43:47.561Z,2.75
2023-03-26T17:46:39.779Z,3.30
2023-03-26T17:49:28.950Z,3.45
2023-03-26T17:52:41.809Z,3.38
2023-03-26T17:55:35.675Z,3.03
2023-03-26T18:01:45.522Z,2.97
2023-03-26T18:04:33.853Z,2.92
2023-03-26T18:07:35.089Z,3.17
2023-03-26T18:10:46.519Z,3.40
2023-03-26T18:13:52.964Z,3.95
2023-03-26T18:16:42.774Z,3.67
2023-03-26T18:19:33.828Z,3.90
2023-03-26T18:22:59.852Z,4.18
2023-03-26T18:25:52.880Z,3.90
2023-03-26T18:28:44.249Z,5.15
2023-03-26T18:31:31.665Z,5.95
2023-03-26T18:34:19.073Z,8.07
2023-03-26T18:37:11.454Z,8.55
2023-03-26T18:40:21.169Z,11.70
2023-03-26T18:43:28.901Z,13.40
2023-03-26T18:46:23.342Z,15.60
2023-03-26T18:49:16.640Z,16.35
2023-03-26T18:52:02.652Z,16.85
2023-03-26T18:54:51.995Z,17.55
2023-03-26T18:57:38.123Z,17.02
2023-03-26T19:00:26.339Z,19.30
2023-03-26T19:03:14.881Z,18.52
2023-03-26T19:06:02.523Z,16.75
2023-03-26T19:08:48.059Z,15.65
2023-03-26T19:11:37.809Z,15.73
2023-03-26T19:14:25.343Z,15.07
2023-03-26T19:17:11.812Z,13.70
2023-03-26T19:19:57.892Z,11.25
2023-03-26T19:23:12.221Z,11.63
2023-03-26T19:26:01.685Z,11.23
2023-03-26T19:28:56.659Z,9.85
2023-03-26T19:31:42.802Z,8.65
2023-03-26T19:34:35.177Z,9.70
2023-03-26T19:37:26.860Z,7.18
2023-03-26T19:40:17.712Z,8.68
2023-03-26T19:43:04.520Z,6.80
2023-03-26T19:46:04.953Z,6.55
2023-03-26T19:49:01.431Z,6.78
2023-03-26T19:51:53.345Z,6.65
2023-03-26T19:55:00.032Z,5.80
2023-03-26T19:57:46.458Z,6.65
2023-03-26T20:00:35.220Z,6.60
2023-03-26T20:03:38.135Z,6.18
2023-03-26T20:06:34.144Z,7.93
2023-03-26T20:09:27.839Z,11.63
2023-03-26T20:12:13.635Z,10.90
2023-03-26T20:15:02.247Z,8.25
2023-03-26T20:17:50.265Z,7.15
2023-03-26T20:20:36.631Z,9.57
2023-03-26T20:23:32.553Z,7.65
2023-03-26T20:26:19.878Z,7.80
2023-03-26T20:31:52.540Z,7.70
2023-03-26T20:34:38.546Z,7.18
2023-03-26T20:37:24.561Z,6.20
2023-03-26T20:40:12.344Z,6.03
2023-03-26T20:42:58.189Z,3.80
2023-03-26T20:45:45.172Z,5.85
2023-03-26T20:48:31.588Z,5.63
2023-03-26T20:51:17.983Z,4.78
2023-03-26T20:54:04.475Z,5.30
2023-03-26T20:56:50.915Z,5.78
2023-03-26T20:59:36.827Z,4.78
2023-03-26T21:02:23.539Z,4.50
2023-03-26T21:05:15.231Z,5.80
2023-03-26T21:08:01.245Z,5.30
2023-03-26T21:10:47.700Z,6.15
2023-03-26T21:14:08.784Z,5.35
2023-03-26T21:16:54.650Z,5.93
2023-03-26T21:19:41.432Z,5.78
2023-03-26T21:22:40.507Z,5.20
2023-03-26T21:25:38.617Z,5.38
2023-03-26T21:28:42.203Z,5.38
2023-03-26T21:31:31.065Z,4.45
2023-03-26T21:34:17.393Z,5.22
2023-03-26T21:37:03.962Z,4.18
2023-03-26T21:39:50.290Z,4.22
2023-03-26T21:42:36.589Z,4.45
2023-03-26T21:45:23.100Z,4.38
2023-03-26T21:48:09.381Z,6.18
2023-03-26T21:50:55.712Z,7.43
2023-03-26T21:53:42.981Z,5.75
2023-03-26T21:56:47.669Z,5.80
2023-03-26T22:00:18.521Z,8.30
2023-03-26T22:06:32.100Z,5.10
2023-03-26T22:09:23.445Z,5.53
2023-03-26T22:12:12.871Z,5.93
2023-03-26T22:14:58.911Z,6.50
2023-03-26T22:17:45.579Z,7.10
2023-03-26T22:20:31.209Z,6.55
2023-03-26T22:23:16.847Z,8.18
2023-03-26T22:26:03.886Z,9.00
2023-03-26T22:28:50.671Z,7.68
2023-03-26T22:31:39.894Z,8.27
2023-03-26T22:34:25.599Z,8.77
2023-03-26T22:37:11.602Z,7.55
2023-03-26T22:39:57.723Z,6.85
2023-03-26T22:42:43.600Z,7.82
2023-03-26T22:45:30.190Z,7.30
2023-03-26T22:48:16.467Z,6.75
2023-03-26T22:51:03.034Z,6.82
2023-03-26T22:53:48.821Z,7.20
2023-03-26T22:56:34.448Z,7.68
2023-03-26T22:59:20.650Z,6.68
2023-03-26T23:02:07.310Z,6.35
2023-03-26T23:04:53.054Z,7.10
2023-03-26T23:07:38.767Z,6.50
2023-03-26T23:10:24.603Z,6.40
2023-03-26T23:13:11.079Z,6.45
2023-03-26T23:15:58.845Z,6.60
2023-03-26T23:18:44.863Z,6.40
2023-03-26T23:21:31.248Z,6.57
2023-03-26T23:24:17.226Z,6.95
2023-03-26T23:27:03.614Z,6.18
2023-03-26T23:29:49.316Z,6.47
2023-03-26T23:32:38.117Z,6.63
2023-03-26T23:35:23.674Z,6.35
2023-03-26T23:38:09.244Z,6.57
2023-03-26T23:40:57.801Z,6.43
2023-03-26T23:43:54.850Z,6.82
2023-03-26T23:46:44.275Z,6.90
2023-03-26T23:49:30.101Z,5.95
2023-03-26T23:52:15.660Z,5.63
2023-03-26T23:55:01.324Z,5.70
2023-03-26T23:57:47.119Z,5.93
